Time;durP1;ratioP1;P1;durP2;ratioP2;P2;SDS_P1;SDS_P2;PMS_P1;PMS_P2;Temp;Humidity;BMP_temperature;BMP_pressure;BME280_temperature;BME280_humidity;BME280_pressure;Samples;Min_cycle;Max_cycle;Signal;HPM_P1;HPM_P2
2022/05/13 00:01:55;;;;;;;9.10;1.23;;;;;;;9.25;73.11;101690.47;5035517;28;20029;-90
2022/05/13 00:04:21;;;;;;;7.07;1.43;;;;;;;9.22;72.75;101693.63;5035615;28;20441;-91
2022/05/13 00:06:46;;;;;;;8.70;1.52;;;;;;;9.18;73.19;101703.13;5033748;28;20030;-90
2022/05/13 00:09:11;;;;;;;8.97;1.67;;;;;;;9.15;73.25;101688.34;5034811;28;20033;-90
2022/05/13 00:11:37;;;;;;;9.80;1.67;;;;;;;9.09;73.84;101705.31;5045389;28;20041;-90
2022/05/13 00:14:04;;;;;;;10.23;1.85;;;;;;;9.00;74.27;101686.09;5053624;28;20447;-90
2022/05/13 00:16:30;;;;;;;8.68;1.35;;;;;;;9.00;74.69;101688.75;5053836;28;20025;-90
2022/05/13 00:18:55;;;;;;;9.03;1.70;;;;;;;8.94;75.05;101690.50;5054715;28;20174;-90
2022/05/13 00:21:20;;;;;;;6.93;1.20;;;;;;;8.99;75.67;101694.31;5039899;28;20500;-91
2022/05/13 00:23:46;;;;;;;7.90;1.70;;;;;;;8.96;76.79;101689.41;5033960;28;20037;-90
2022/05/13 00:26:11;;;;;;;9.40;1.63;;;;;;;8.90;76.40;101691.13;5040382;28;20119;-91
2022/05/13 00:28:36;;;;;;;11.13;2.00;;;;;;;8.82;77.01;101681.56;5054069;28;20484;-91
2022/05/13 00:31:04;;;;;;;7.17;2.00;;;;;;;8.88;77.12;101683.34;5052142;28;20416;-91
2022/05/13 00:33:31;;;;;;;7.28;1.75;;;;;;;8.91;77.39;101690.09;5054670;28;20028;-91
2022/05/13 00:35:57;;;;;;;12.15;2.03;;;;;;;8.86;77.78;101685.44;5036454;28;20421;-90
2022/05/13 00:38:23;;;;;;;8.60;2.00;;;;;;;8.88;77.66;101688.69;5033834;28;20029;-90
2022/05/13 00:40:48;;;;;;;13.10;1.90;;;;;;;8.87;78.81;101679.06;5033187;28;20026;-91
2022/05/13 00:43:35;;;;;;;9.52;2.50;;;;;;;8.97;79.31;101683.88;5033825;28;20031;-90
2022/05/13 00:46:03;;;;;;;12.07;2.03;;;;;;;9.00;78.08;101679.91;5032321;28;20066;-89
2022/05/13 00:48:28;;;;;;;12.82;3.17;;;;;;;8.98;79.69;101682.81;5033886;28;20468;-91
2022/05/13 00:50:54;;;;;;;7.57;2.00;;;;;;;9.00;79.08;101686.09;5037906;28;20026;-89
2022/05/13 00:53:19;;;;;;;7.80;2.10;;;;;;;9.00;79.84;101682.59;5038882;28;20088;-91
2022/05/13 00:55:45;;;;;;;12.13;2.23;;;;;;;9.02;79.84;101685.84;5054458;28;20044;-91
2022/05/13 00:58:17;;;;;;;10.43;2.05;;;;;;;9.00;79.71;101687.94;5059297;28;20099;-90
2022/05/13 01:00:43;;;;;;;19.27;2.25;;;;;;;8.92;80.03;101679.19;5047983;28;20052;-92
2022/05/13 01:03:11;;;;;;;12.00;1.77;;;;;;;8.99;79.40;101678.28;5037218;28;20403;-91
2022/05/13 01:05:47;;;;;;;8.15;1.90;;;;;;;8.95;78.86;101675.25;5037865;28;20048;-91
2022/05/13 01:08:13;;;;;;;11.40;1.85;;;;;;;8.90;78.83;101675.09;5034401;28;20026;-91
2022/05/13 01:10:40;;;;;;;6.93;1.80;;;;;;;8.89;78.41;101679.66;5037954;28;20412;-89
2022/05/13 01:13:10;;;;;;;6.07;1.70;;;;;;;8.89;78.41;101676.97;5033081;28;20028;-91
2022/05/13 01:15:39;;;;;;;10.38;2.15;;;;;;;8.84;78.20;101679.50;5032155;28;20507;-90
2022/05/13 01:18:06;;;;;;;5.72;1.70;;;;;;;8.78;77.92;101677.72;5037047;28;20032;-90
2022/05/13 01:20:38;;;;;;;8.57;1.53;;;;;;;8.75;77.78;101683.53;5051501;28;20032;-89
2022/05/13 01:23:09;;;;;;;8.37;1.67;;;;;;;8.72;77.62;101673.28;5052858;28;20284;-89
2022/05/13 01:25:40;;;;;;;9.13;1.35;;;;;;;8.67;77.66;101681.97;5035920;28;20045;-89
2022/05/13 01:28:09;;;;;;;7.95;1.50;;;;;;;8.70;77.50;101665.47;5060713;28;20089;-90
2022/05/13 01:30:40;;;;;;;6.38;1.73;;;;;;;8.67;77.56;101668.63;5063667;28;20059;-90
2022/05/13 01:33:08;;;;;;;9.30;1.52;;;;;;;8.66;77.45;101668.81;5061369;28;20117;-91
2022/05/13 01:35:38;;;;;;;4.60;1.30;;;;;;;8.62;77.46;101690.66;5046180;28;20029;-91
2022/05/13 01:38:03;;;;;;;6.22;1.30;;;;;;;8.60;77.42;101682.03;5042059;28;20026;-91
2022/05/13 01:40:28;;;;;;;3.80;1.17;;;;;;;8.62;77.49;101685.31;5042944;28;20041;-90
2022/05/13 01:42:54;;;;;;;5.03;1.40;;;;;;;8.61;77.51;101691.69;5043452;28;20028;-90
2022/05/13 01:45:19;;;;;;;4.00;1.40;;;;;;;8.62;77.50;101682.63;5043984;28;20052;-90
2022/05/13 01:47:45;;;;;;;3.63;1.30;;;;;;;8.67;77.68;101681.97;5055570;28;20035;-91
2022/05/13 01:50:10;;;;;;;6.00;1.60;;;;;;;8.76;77.23;101683.28;5054835;28;20031;-91
2022/05/13 01:52:35;;;;;;;3.33;1.57;;;;;;;8.91;77.00;101684.75;5051343;28;20063;-90
2022/05/13 01:55:01;;;;;;;6.60;1.20;;;;;;;9.06;76.51;101689.72;5015592;28;20033;-91
2022/05/13 01:57:27;;;;;;;10.17;1.50;;;;;;;9.18;75.91;101684.41;5044883;28;20029;-91
2022/05/13 01:59:52;;;;;;;8.17;1.40;;;;;;;9.24;75.22;101687.00;5053550;28;20032;-90
2022/05/13 02:02:17;;;;;;;10.13;1.20;;;;;;;9.32;75.11;101687.69;5051942;28;20033;-90
2022/05/13 02:04:42;;;;;;;6.77;1.50;;;;;;;9.26;74.80;101676.06;5054508;28;20365;-90
2022/05/13 02:07:07;;;;;;;5.57;1.23;;;;;;;9.34;75.09;101690.97;5057988;28;20044;-90
2022/05/13 02:09:33;;;;;;;7.43;1.30;;;;;;;9.35;75.15;101681.88;5065293;28;20025;-89
2022/05/13 02:11:58;;;;;;;9.73;1.20;;;;;;;9.36;74.72;101681.69;5064244;28;20506;-90
2022/05/13 02:14:23;;;;;;;10.00;1.33;;;;;;;9.36;74.96;101679.00;5065629;28;20029;-91
2022/05/13 02:16:49;;;;;;;9.37;1.30;;;;;;;9.38;75.08;101673.41;5059584;28;20060;-90
2022/05/13 02:19:16;;;;;;;8.02;1.50;;;;;;;9.37;75.16;101674.47;5054972;28;20506;-91
2022/05/13 02:21:41;;;;;;;9.17;1.23;;;;;;;9.37;75.48;101690.50;5046916;28;20025;-91
2022/05/13 02:24:07;;;;;;;11.47;1.70;;;;;;;9.36;75.77;101680.84;5034721;28;20287;-91
2022/05/13 02:26:32;;;;;;;14.73;1.60;;;;;;;9.30;75.70;101679.09;5033563;28;20064;-91
2022/05/13 02:29:01;;;;;;;6.93;1.50;;;;;;;9.26;76.26;101676.06;5032882;28;20037;-90
2022/05/13 02:31:26;;;;;;;4.65;1.50;;;;;;;9.24;76.56;101675.47;5032959;28;20035;-90
2022/05/13 02:33:52;;;;;;;13.47;1.83;;;;;;;9.31;76.89;101680.75;5032630;28;20029;-91
2022/05/13 02:36:17;;;;;;;10.15;1.60;;;;;;;9.28;76.57;101679.31;5032189;28;20049;-92
2022/05/13 02:38:42;;;;;;;11.57;1.47;;;;;;;9.30;76.91;101676.44;5032580;28;20397;-90
2022/05/13 02:41:16;;;;;;;5.20;1.50;;;;;;;9.27;77.28;101677.69;5032031;28;20029;-91
2022/05/13 02:43:45;;;;;;;10.35;1.58;;;;;;;9.23;77.72;101682.69;5052967;28;20052;-89
2022/05/13 02:46:16;;;;;;;10.05;2.13;;;;;;;9.33;77.97;101679.47;5031007;28;20026;-89
2022/05/13 02:48:42;;;;;;;9.25;1.67;;;;;;;9.37;77.88;101672.63;5012795;28;20037;-88
2022/05/13 02:51:07;;;;;;;9.73;1.67;;;;;;;9.39;77.24;101667.84;5014648;28;20026;-89
2022/05/13 02:53:32;;;;;;;11.27;1.80;;;;;;;9.39;77.75;101667.84;5033170;28;20075;-90
2022/05/13 02:55:57;;;;;;;12.70;2.07;;;;;;;9.43;78.02;101672.72;5032960;28;20042;-90
2022/05/13 02:58:25;;;;;;;7.78;1.70;;;;;;;9.42;77.63;101671.91;5032677;28;20038;-90
2022/05/13 03:00:51;;;;;;;6.23;1.80;;;;;;;9.42;77.98;101673.75;5031784;28;20022;-90
2022/05/13 03:03:16;;;;;;;9.20;1.90;;;;;;;9.47;78.13;101663.19;5031175;28;20292;-90
2022/05/13 03:05:41;;;;;;;8.68;1.92;;;;;;;9.49;78.40;101669.97;5032541;28;20032;-90
2022/05/13 03:08:07;;;;;;;17.40;2.20;;;;;;;9.55;78.57;101668.22;5032164;28;20022;-90
2022/05/13 03:10:36;;;;;;;11.73;2.60;;;;;;;9.61;78.41;101669.16;5031741;28;20484;-90
2022/05/13 03:13:03;;;;;;;11.88;2.40;;;;;;;9.65;78.36;101675.69;5030537;28;20119;-90
2022/05/13 03:15:28;;;;;;;10.73;2.13;;;;;;;9.67;78.23;101676.28;5031856;28;20021;-91
2022/05/13 03:17:55;;;;;;;9.03;2.10;;;;;;;9.67;77.84;101669.06;5031696;28;20500;-89
2022/05/13 03:20:22;;;;;;;16.55;2.50;;;;;;;9.72;78.49;101672.91;5032506;28;20063;-90
2022/05/13 03:22:48;;;;;;;11.82;2.60;;;;;;;9.72;78.66;101670.22;5045529;28;20029;-91
2022/05/13 03:25:15;;;;;;;14.65;2.63;;;;;;;9.68;78.72;101656.47;5053707;28;20139;-91
2022/05/13 03:27:43;;;;;;;11.88;2.55;;;;;;;9.73;79.13;101661.97;5058124;28;20049;-90
2022/05/13 03:30:11;;;;;;;11.83;2.20;;;;;;;9.78;78.38;101663.94;5051988;28;20072;-90
2022/05/13 03:32:37;;;;;;;9.52;2.17;;;;;;;9.69;78.62;101661.63;5038547;28;20030;-90
2022/05/13 03:35:05;;;;;;;14.00;2.53;;;;;;;9.63;78.93;101661.72;5033473;28;20076;-91
2022/05/13 03:37:30;;;;;;;12.98;2.35;;;;;;;9.55;79.68;101665.56;5032758;28;20040;-90
2022/05/13 03:39:55;;;;;;;12.90;2.83;;;;;;;9.50;80.69;101654.72;5032792;28;20453;-90
2022/05/13 03:42:22;;;;;;;12.43;2.57;;;;;;;9.47;80.18;101664.03;5031913;28;20036;-90
2022/05/13 03:44:51;;;;;;;15.38;2.63;;;;;;;9.35;81.05;101666.66;5034516;28;20079;-90
2022/05/13 03:47:16;;;;;;;16.88;3.10;;;;;;;9.34;81.13;101678.41;5022189;28;20034;-90
2022/05/13 03:49:42;;;;;;;9.80;2.45;;;;;;;9.26;81.60;101667.22;5036726;28;20083;-91
2022/05/13 03:52:10;;;;;;;13.47;2.67;;;;;;;9.18;81.70;101668.38;5035509;28;20029;-90
2022/05/13 03:54:38;;;;;;;11.73;3.08;;;;;;;9.15;82.05;101666.94;5035801;28;20026;-91
2022/05/13 03:57:06;;;;;;;12.70;2.75;;;;;;;9.09;82.47;101662.53;5036422;28;20380;-91
2022/05/13 03:59:33;;;;;;;10.48;2.72;;;;;;;9.05;82.55;101653.31;5034368;28;20041;-90
2022/05/13 04:01:58;;;;;;;12.00;2.80;;;;;;;9.07;83.20;101664.59;5027931;28;20026;-91
2022/05/13 04:04:24;;;;;;;12.77;3.03;;;;;;;9.03;83.80;101653.56;5034022;28;20103;-91
2022/05/13 04:09:35;;;;;;;13.65;2.95;;;;;;;9.13;83.42;101673.56;5035226;28;20041;-90
2022/05/13 04:17:30;;;;;;;16.30;3.28;;;;;;;9.08;83.92;101669.72;5035432;28;20091;-90
2022/05/13 04:19:55;;;;;;;15.07;3.80;;;;;;;9.16;84.58;101668.56;5035863;28;20481;-90
2022/05/13 04:22:24;;;;;;;19.17;3.60;;;;;;;9.18;84.31;101669.16;5043317;28;20871;-90
2022/05/13 04:24:52;;;;;;;15.65;3.13;;;;;;;9.27;83.00;101668.84;5061921;28;20033;-90
2022/05/13 04:27:17;;;;;;;20.90;3.53;;;;;;;9.27;83.28;101658.97;5059242;28;20033;-90
2022/05/13 04:29:43;;;;;;;15.37;3.33;;;;;;;9.25;83.44;101677.09;5055144;28;20028;-90
2022/05/13 04:32:08;;;;;;;14.80;3.35;;;;;;;9.23;83.90;101674.66;5015208;28;20104;-90
2022/05/13 04:34:34;;;;;;;15.03;3.40;;;;;;;9.27;84.08;101674.22;5020747;28;20030;-90
2022/05/13 04:36:59;;;;;;;16.47;3.40;;;;;;;9.30;84.44;101676.44;5025174;28;20026;-90
2022/05/13 04:39:24;;;;;;;14.20;3.20;;;;;;;9.34;83.39;101682.94;5031253;28;20018;-90
2022/05/13 04:44:37;;;;;;;17.07;3.10;;;;;;;9.48;83.79;101680.88;5034343;28;20555;-90
2022/05/13 04:47:02;;;;;;;11.83;3.40;;;;;;;9.49;83.43;101683.34;5019177;28;20284;-90
2022/05/13 04:49:27;;;;;;;14.43;3.10;;;;;;;9.64;83.34;101690.91;5019224;28;20032;-91
2022/05/13 04:51:53;;;;;;;15.87;3.80;;;;;;;9.89;82.21;101699.78;5036668;28;20025;-91
2022/05/13 04:54:19;;;;;;;21.40;3.88;;;;;;;10.69;80.36;101709.09;5037709;28;20500;-91
2022/05/13 04:56:44;;;;;;;7.40;3.00;;;;;;;11.59;76.36;101713.16;5040296;28;20029;-90
2022/05/13 04:59:09;;;;;;;13.50;3.13;;;;;;;12.20;73.53;101712.50;5038836;28;20464;-90
2022/05/13 05:01:35;;;;;;;12.73;3.27;;;;;;;12.31;72.38;101711.59;5054104;28;20303;-91
2022/05/13 05:04:00;;;;;;;13.50;3.20;;;;;;;12.28;71.88;101720.16;5060314;28;20067;-91
2022/05/13 05:06:25;;;;;;;11.10;3.00;;;;;;;12.05;72.37;101715.78;5061890;28;20062;-89
2022/05/13 05:08:52;;;;;;;12.37;3.17;;;;;;;11.79;73.48;101712.66;5051604;28;20518;-92
2022/05/13 05:11:18;;;;;;;11.70;3.10;;;;;;;11.60;73.93;101720.97;5034430;28;20127;-90
2022/05/13 05:13:50;;;;;;;11.97;3.13;;;;;;;11.44;74.78;101725.25;5058016;28;20671;-89
2022/05/13 05:16:16;;;;;;;15.32;3.00;;;;;;;11.39;74.78;101730.53;5056191;28;20443;-91
2022/05/13 05:18:42;;;;;;;13.68;2.85;;;;;;;11.35;75.00;101730.19;5059801;28;20029;-89
2022/05/13 05:21:09;;;;;;;15.80;3.60;;;;;;;11.32;75.27;101733.34;5059471;28;20059;-90
2022/05/13 05:23:38;;;;;;;12.43;3.13;;;;;;;11.35;75.19;101738.22;5054131;28;20036;-89
2022/05/13 05:26:03;;;;;;;14.10;2.97;;;;;;;11.35;75.18;101740.13;5056131;28;20013;-88
2022/05/13 05:28:29;;;;;;;14.40;3.23;;;;;;;11.32;75.63;101743.28;5056182;28;20018;-92
2022/05/13 05:31:00;;;;;;;10.80;2.80;;;;;;;11.41;75.43;101749.06;5056197;28;20025;-91
2022/05/13 05:33:25;;;;;;;9.60;3.60;;;;;;;11.50;74.86;101742.28;5056132;28;20065;-93
2022/05/13 05:35:51;;;;;;;13.30;3.47;;;;;;;11.64;74.88;101759.69;5055687;28;20036;-90
2022/05/13 05:38:17;;;;;;;11.50;3.03;;;;;;;11.72;74.54;101757.66;5053728;28;20029;-90
2022/05/13 05:40:43;;;;;;;13.52;2.88;;;;;;;11.78;74.23;101754.00;5058224;28;20031;-89
2022/05/13 05:43:12;;;;;;;11.20;2.92;;;;;;;11.81;73.90;101764.25;5035912;28;20026;-88
2022/05/13 05:45:40;;;;;;;10.97;2.70;;;;;;;11.84;73.77;101768.31;5034571;28;20040;-89
2022/05/13 05:48:07;;;;;;;8.47;3.03;;;;;;;11.91;73.93;101769.78;5035516;28;20268;-88
2022/05/13 05:50:32;;;;;;;13.35;3.13;;;;;;;12.00;73.29;101772.13;5045071;28;20030;-90
2022/05/13 05:52:57;;;;;;;14.55;3.10;;;;;;;12.04;73.66;101781.31;5050151;28;20040;-94
2022/05/13 05:58:10;;;;;;;16.95;3.35;;;;;;;12.24;72.68;101778.94;5079160;28;20028;-93
2022/05/13 06:01:05;;;;;;;12.30;3.23;;;;;;;12.37;72.29;101790.41;5068410;28;20040;-95
2022/05/13 06:03:30;;;;;;;13.07;3.37;;;;;;;12.37;71.54;101782.34;5045253;28;20314;-95
2022/05/13 06:06:00;;;;;;;12.82;3.15;;;;;;;12.49;71.87;101785.75;5058844;28;20014;-92
2022/05/13 06:08:27;;;;;;;16.27;2.87;;;;;;;12.71;70.91;101793.03;5058434;28;20311;-95
2022/05/13 06:10:53;;;;;;;14.90;2.90;;;;;;;12.93;70.23;101794.94;5049812;28;20018;-95
2022/05/13 06:13:19;;;;;;;19.15;3.45;;;;;;;13.11;69.80;101800.00;5038983;28;20022;-93
2022/05/13 06:15:45;;;;;;;15.97;3.30;;;;;;;13.25;69.29;101797.72;5038639;28;20044;-94
2022/05/13 06:18:10;;;;;;;11.40;3.10;;;;;;;13.55;68.58;101809.09;5038758;28;20025;-93
2022/05/13 06:20:35;;;;;;;17.70;3.47;;;;;;;13.68;68.52;101806.03;5044212;28;20073;-94
2022/05/13 06:23:01;;;;;;;12.15;3.88;;;;;;;13.68;67.77;101806.03;5057842;28;20035;-92
2022/05/13 06:25:26;;;;;;;12.80;3.10;;;;;;;13.67;67.92;101804.41;5056223;28;20024;-93
2022/05/13 06:27:53;;;;;;;13.60;3.67;;;;;;;13.71;67.78;101802.00;5054238;28;20085;-94
2022/05/13 06:30:23;;;;;;;17.33;3.90;;;;;;;13.85;67.54;101818.56;5074097;28;20101;-94
2022/05/13 06:32:48;;;;;;;19.55;4.05;;;;;;;13.84;67.69;101815.03;5057308;28;20028;-94
2022/05/13 06:35:14;;;;;;;9.37;3.40;;;;;;;13.97;67.92;101818.41;5293791;22;20033;-92
2022/05/13 06:37:39;;;;;;;17.13;3.75;;;;;;;14.18;67.38;101817.47;5263452;22;20041;-93
2022/05/13 06:40:06;;;;;;;14.57;4.13;;;;;;;14.30;67.88;101811.91;5057006;28;20044;-93
2022/05/13 06:42:31;;;;;;;17.33;4.00;;;;;;;14.47;66.07;101817.16;5057675;28;20020;-93
2022/05/13 06:44:56;;;;;;;14.00;3.97;;;;;;;14.63;66.04;101817.25;5057513;28;20276;-94
2022/05/13 06:50:43;;;;;;;14.88;3.80;;;;;;;14.98;64.77;101832.81;5057814;28;20049;-95
2022/05/13 06:53:10;;;;;;;23.07;4.00;;;;;;;15.24;64.25;101832.94;5058257;28;20017;-95
2022/05/13 06:55:35;;;;;;;19.60;3.95;;;;;;;15.48;63.25;101845.16;5049552;28;20025;-94
2022/05/13 06:58:01;;;;;;;15.43;3.83;;;;;;;15.64;62.25;101841.41;5051477;28;20038;-93
2022/05/13 07:00:26;;;;;;;16.03;3.80;;;;;;;15.68;61.93;101833.59;5052705;28;20037;-93
2022/05/13 07:02:51;;;;;;;17.23;3.80;;;;;;;15.69;62.03;101840.63;5058026;28;20272;-93
2022/05/13 07:05:17;;;;;;;17.27;4.07;;;;;;;15.68;62.31;101825.50;5056241;28;20021;-94
2022/05/13 07:07:45;;;;;;;15.02;3.83;;;;;;;15.70;62.33;101842.25;5056349;28;20028;-94
2022/05/13 07:10:10;;;;;;;12.63;3.47;;;;;;;15.62;61.93;101838.16;5052222;28;20060;-95
2022/05/13 07:12:37;;;;;;;18.17;4.80;;;;;;;15.67;62.63;101840.88;5054055;28;20045;-94
2022/05/13 07:15:04;;;;;;;21.10;4.32;;;;;;;15.64;62.40;101841.41;5038066;28;20081;-92
2022/05/13 07:17:30;;;;;;;17.05;4.32;;;;;;;15.78;62.33;101839.00;5038033;28;20026;-95
2022/05/13 07:19:56;;;;;;;14.60;4.07;;;;;;;15.97;62.10;101852.03;5040290;28;20021;-93
2022/05/13 07:22:21;;;;;;;14.37;4.97;;;;;;;16.02;61.04;101844.72;5041565;28;20025;-93
2022/05/13 07:24:47;;;;;;;16.75;5.68;;;;;;;16.20;61.54;101843.38;5061548;28;20013;-93
2022/05/13 07:27:15;;;;;;;13.10;4.43;;;;;;;16.47;60.84;101846.88;5060457;28;20029;-91
2022/05/13 07:29:40;;;;;;;11.13;4.17;;;;;;;16.57;59.26;101840.63;5059627;28;20078;-89
2022/05/13 07:32:06;;;;;;;14.97;4.67;;;;;;;16.61;59.31;101849.84;5059647;28;20291;-91
2022/05/13 07:34:32;;;;;;;16.45;5.10;;;;;;;16.61;59.28;101837.09;5059012;28;20049;-92
2022/05/13 07:36:58;;;;;;;13.90;4.37;;;;;;;16.58;59.21;101844.97;5059108;28;20030;-91
2022/05/13 07:42:09;;;;;;;15.80;4.07;;;;;;;16.59;59.67;101852.81;5051325;28;20053;-90
2022/05/13 07:44:35;;;;;;;17.30;4.80;;;;;;;16.90;58.84;101852.72;5040465;28;20291;-90
2022/05/13 07:47:01;;;;;;;17.40;4.47;;;;;;;17.04;58.13;101849.47;5040544;28;20013;-90
2022/05/13 07:49:27;;;;;;;10.80;4.07;;;;;;;17.01;57.08;101847.31;5040655;28;20077;-91
2022/05/13 07:51:52;;;;;;;13.13;4.25;;;;;;;16.98;57.26;101854.06;5044895;28;20060;-92
2022/05/13 07:54:18;;;;;;;14.23;3.93;;;;;;;17.06;58.10;101848.09;5054042;28;20093;-91
2022/05/13 07:56:43;;;;;;;10.53;4.07;;;;;;;17.53;56.35;101850.56;5059290;28;20049;-89
2022/05/13 07:59:09;;;;;;;11.87;4.33;;;;;;;18.07;54.88;101856.22;5059758;28;20084;-90
2022/05/13 08:01:34;;;;;;;17.88;3.90;;;;;;;18.57;53.77;101859.56;5058479;28;20074;-91
2022/05/13 08:03:59;;;;;;;13.20;3.97;;;;;;;18.80;51.95;101868.00;5059901;28;20044;-90
2022/05/13 08:06:25;;;;;;;16.97;3.47;;;;;;;18.76;52.55;101856.91;5059905;28;20014;-91
2022/05/13 08:08:56;;;;;;;13.48;3.70;;;;;;;18.41;51.13;101866.22;5059786;28;20038;-92
2022/05/13 08:11:22;;;;;;;12.93;3.53;;;;;;;18.03;51.73;101869.50;5057893;28;20033;-91
2022/05/13 08:13:48;;;;;;;8.65;3.00;;;;;;;17.85;52.80;101870.97;5058750;28;20005;-91
2022/05/13 08:16:20;;;;;;;13.23;3.67;;;;;;;17.69;52.72;101873.81;5060089;28;20022;-91
2022/05/13 08:18:46;;;;;;;9.33;3.40;;;;;;;17.71;53.16;101873.50;5059499;28;20009;-91
2022/05/13 08:21:13;;;;;;;10.20;2.92;;;;;;;17.99;53.10;101872.00;5058742;28;20033;-91
2022/05/13 08:23:40;;;;;;;12.07;3.28;;;;;;;18.37;52.44;101881.44;5059042;28;20044;-92
2022/05/13 08:26:06;;;;;;;14.88;3.53;;;;;;;18.41;51.06;101871.66;5058210;28;20170;-91
2022/05/13 08:28:32;;;;;;;12.48;3.30;;;;;;;18.54;51.64;101870.16;5056758;28;20073;-92
2022/05/13 08:30:57;;;;;;;10.87;3.33;;;;;;;18.55;50.97;101871.78;5057457;28;20014;-91
2022/05/13 08:33:23;;;;;;;11.20;3.60;;;;;;;18.28;50.98;101873.91;5058624;28;20048;-91
2022/05/13 08:35:56;;;;;;;16.05;3.22;;;;;;;18.11;51.73;101877.06;5058767;28;20069;-90
2022/05/13 08:38:25;;;;;;;8.93;2.60;;;;;;;17.90;51.81;101879.06;5055573;28;20041;-92
2022/05/13 08:40:52;;;;;;;8.53;2.60;;;;;;;17.96;51.77;101877.16;5058093;28;20277;-92
2022/05/13 08:43:25;;;;;;;10.88;2.80;;;;;;;18.19;51.02;101875.63;5058040;28;20105;-90
2022/05/13 08:45:55;;;;;;;16.92;2.85;;;;;;;18.49;49.98;101881.88;5057831;28;20017;-92
2022/05/13 08:48:48;;;;;;;9.05;2.70;;;;;;;18.88;50.21;101883.66;5058012;28;20040;-89
2022/05/13 08:51:28;;;;;;;8.55;2.47;;;;;;;19.32;48.66;101879.06;5058475;28;20037;-91
2022/05/13 08:54:11;;;;;;;9.23;3.10;;;;;;;19.58;48.72;101884.19;5058822;28;20041;-91
2022/05/13 08:56:38;;;;;;;12.32;2.80;;;;;;;19.47;47.13;101886.22;5058086;28;20014;-91
2022/05/13 08:59:19;;;;;;;9.30;2.80;;;;;;;19.21;47.45;101880.31;5058689;28;20018;-90
2022/05/13 09:01:49;;;;;;;9.68;2.20;;;;;;;19.17;47.23;101888.22;5057101;28;20026;-91
2022/05/13 09:04:37;;;;;;;11.47;2.80;;;;;;;19.28;47.06;101890.81;5057613;28;20024;-90
2022/05/13 09:07:06;;;;;;;18.17;3.20;;;;;;;19.16;47.23;101891.25;5058119;28;20339;-90
2022/05/13 09:09:34;;;;;;;7.13;2.78;;;;;;;19.14;47.49;101883.41;5057945;28;20033;-90
2022/05/13 09:12:37;;;;;;;10.52;2.60;;;;;;;19.57;47.67;101901.59;5058078;28;20056;-92
2022/05/13 09:15:12;;;;;;;10.82;2.60;;;;;;;19.87;46.62;101879.69;5058130;28;20053;-92
2022/05/13 09:17:43;;;;;;;8.90;2.63;;;;;;;19.86;44.84;101883.50;5058086;28;20084;-88
2022/05/13 09:20:17;;;;;;;8.30;2.90;;;;;;;20.12;45.41;101892.09;5057416;28;20021;-90
2022/05/13 09:22:49;;;;;;;9.60;2.70;;;;;;;20.48;44.21;101893.41;5057186;28;20013;-91
2022/05/13 09:25:25;;;;;;;7.70;2.33;;;;;;;20.36;44.07;101883.00;5056536;28;20043;-91
2022/05/13 09:27:57;;;;;;;9.43;1.80;;;;;;;20.37;44.24;101896.31;5057383;28;20009;-91
2022/05/13 09:30:31;;;;;;;8.67;1.97;;;;;;;20.21;42.39;101889.50;5056334;28;20033;-91
2022/05/13 09:32:56;;;;;;;5.63;2.13;;;;;;;20.33;43.12;101883.59;5056608;28;20310;-91
2022/05/13 09:35:35;;;;;;;7.68;1.95;;;;;;;20.37;43.77;101895.47;5057223;28;20009;-92
2022/05/13 09:38:12;;;;;;;8.87;2.20;;;;;;;20.31;43.52;101889.31;5056672;28;20024;-90
2022/05/13 09:40:38;;;;;;;8.25;2.03;;;;;;;20.41;42.38;101901.94;5055924;28;20026;-90
2022/05/13 09:43:04;;;;;;;5.55;1.90;;;;;;;20.54;41.88;101894.94;5056717;28;20026;-90
2022/05/13 09:45:33;;;;;;;10.27;1.97;;;;;;;20.69;42.25;101910.19;5056906;28;20101;-91
2022/05/13 09:48:08;;;;;;;6.13;1.88;;;;;;;20.82;42.02;101909.41;5057114;28;20177;-90
2022/05/13 09:50:42;;;;;;;12.13;2.10;;;;;;;20.79;41.50;101904.56;5056438;28;20009;-92
2022/05/13 09:53:21;;;;;;;6.75;2.03;;;;;;;20.77;41.42;101908.72;5056276;28;20029;-91
2022/05/13 09:55:58;;;;;;;5.55;1.80;;;;;;;21.08;40.74;101905.38;5056802;28;20086;-93
2022/05/13 09:58:32;;;;;;;8.35;1.83;;;;;;;21.34;39.92;101905.66;5056820;28;20021;-91
2022/05/13 10:01:11;;;;;;;6.45;1.92;;;;;;;21.24;40.26;101906.69;5055909;28;20048;-92
2022/05/13 10:03:38;;;;;;;7.65;2.00;;;;;;;21.09;40.73;101909.72;5056701;28;20014;-91
2022/05/13 10:06:09;;;;;;;9.55;2.10;;;;;;;20.87;40.74;101909.34;5057505;28;20032;-93
2022/05/13 10:08:51;;;;;;;8.60;2.07;;;;;;;20.65;40.31;101903.72;5057038;28;20040;-92
2022/05/13 10:14:27;;;;;;;5.55;1.67;;;;;;;20.91;41.52;101906.81;5056608;28;20036;-90
2022/05/13 10:16:55;;;;;;;5.78;2.10;;;;;;;20.96;40.92;101914.06;5055917;28;20026;-91
2022/05/13 10:19:23;;;;;;;10.63;2.28;;;;;;;20.70;40.67;101898.97;5071292;28;20013;-90
2022/05/13 10:22:10;;;;;;;6.97;1.75;;;;;;;20.99;39.89;101911.56;5055777;28;20085;-91
2022/05/13 10:24:47;;;;;;;6.07;1.95;;;;;;;21.54;39.14;101912.59;5056296;28;20030;-89
2022/05/13 10:27:31;;;;;;;8.48;1.98;;;;;;;21.65;38.68;101907.75;5057598;28;20047;-91
2022/05/13 10:30:18;;;;;;;8.93;1.95;;;;;;;21.27;39.39;101908.81;5055443;28;20044;-90
2022/05/13 10:33:00;;;;;;;8.82;1.65;;;;;;;20.97;39.97;101908.31;5054701;28;20036;-90
2022/05/13 10:35:32;;;;;;;6.67;1.63;;;;;;;20.88;40.34;101923.75;5053459;28;20064;-91
2022/05/13 10:38:22;;;;;;;6.60;1.90;;;;;;;20.97;40.24;101915.69;5056067;28;20299;-90
2022/05/13 10:40:48;;;;;;;7.03;1.95;;;;;;;21.09;39.50;101915.19;5055280;28;20014;-90
2022/05/13 10:43:16;;;;;;;6.57;1.92;;;;;;;21.63;39.46;101908.06;5056370;28;20077;-90
2022/05/13 10:45:44;;;;;;;6.72;1.50;;;;;;;22.18;38.06;101900.78;5055558;28;20025;-90
2022/05/13 10:48:24;;;;;;;9.30;2.00;;;;;;;22.23;38.53;101908.03;5055968;28;20017;-91
2022/05/13 10:51:04;;;;;;;6.60;1.67;;;;;;;22.01;36.61;101900.66;5054563;28;20156;-90
2022/05/13 10:53:44;;;;;;;7.43;1.80;;;;;;;21.72;37.08;101899.94;5054355;28;20030;-92
2022/05/13 10:56:26;;;;;;;7.40;1.83;;;;;;;21.66;38.78;101900.38;5055728;28;20017;-91
2022/05/13 10:58:58;;;;;;;4.93;1.38;;;;;;;21.89;38.14;101898.47;5055074;28;20048;-91
2022/05/13 11:01:52;;;;;;;7.17;1.90;;;;;;;22.13;37.48;101897.38;5055225;28;20021;-93
2022/05/13 11:04:35;;;;;;;7.23;2.07;;;;;;;22.21;37.73;101905.63;5055152;28;20310;-91
2022/05/13 11:07:14;;;;;;;8.75;2.05;;;;;;;22.44;37.18;101908.34;5054714;28;20024;-90
2022/05/13 11:09:51;;;;;;;8.10;2.20;;;;;;;22.89;37.08;101909.34;5055634;28;20022;-92
2022/05/13 11:12:26;;;;;;;6.70;2.00;;;;;;;23.39;36.56;101914.47;5054944;28;20022;-89
2022/05/13 11:15:04;;;;;;;5.65;2.30;;;;;;;23.50;34.91;101901.31;5055583;28;20021;-89
2022/05/13 11:17:35;;;;;;;7.82;2.13;;;;;;;23.33;34.84;101910.31;5055265;28;20026;-91
2022/05/13 11:20:38;;;;;;;5.97;1.92;;;;;;;23.31;35.66;101909.81;5054674;28;20025;-91
2022/05/13 11:23:12;;;;;;;6.65;2.22;;;;;;;23.08;35.48;101909.91;5055092;28;20032;-91
2022/05/13 11:25:56;;;;;;;7.65;2.15;;;;;;;22.93;36.10;101911.13;5055077;28;20073;-91
2022/05/13 11:29:00;;;;;;;4.93;1.90;;;;;;;23.37;35.27;101905.78;5210522;22;20029;-92
2022/05/13 11:31:25;;;;;;;7.60;2.10;;;;;;;23.27;33.71;101917.03;5031697;28;20297;-90
2022/05/13 11:34:02;;;;;;;11.93;2.17;;;;;;;22.84;34.97;101908.34;5035086;28;20056;-89
2022/05/13 11:36:33;;;;;;;6.15;2.10;;;;;;;22.61;36.02;101917.75;5035856;28;20014;-89
2022/05/13 11:39:19;;;;;;;6.32;1.92;;;;;;;22.69;36.34;101916.97;5037570;28;20030;-90
2022/05/13 11:42:06;;;;;;;7.82;2.40;;;;;;;22.78;36.37;101917.84;5054699;28;20029;-91
2022/05/13 11:45:12;;;;;;;6.05;2.30;;;;;;;22.91;36.53;101907.09;5055124;28;20021;-90
2022/05/13 11:47:51;;;;;;;8.75;2.08;;;;;;;22.77;36.93;101899.00;5055043;28;20013;-90
2022/05/13 11:50:17;;;;;;;8.65;2.20;;;;;;;22.80;35.10;101898.38;5053065;28;20052;-92
2022/05/13 11:52:49;;;;;;;5.97;2.00;;;;;;;23.02;34.88;101905.69;5052361;28;20112;-91
2022/05/13 11:55:22;;;;;;;6.30;2.03;;;;;;;23.56;34.99;101901.94;5073579;22;20156;-92
2022/05/13 11:57:55;;;;;;;8.93;2.08;;;;;;;23.82;34.99;101903.91;5053456;28;20048;-91